Time;durP1;ratioP1;P1;durP2;ratioP2;P2;SDS_P1;SDS_P2;PMS_P1;PMS_P2;Temp;Humidity;BMP_temperature;BMP_pressure;BME280_temperature;BME280_humidity;BME280_pressure;Samples;Min_cycle;Max_cycle;Signal;HPM_P1;HPM_P2
2021/10/10 00:01:23;;;;;;;5.03;0.77;;;10.80;99.90;;;;;;5051406;28;20017;-77
2021/10/10 00:03:49;;;;;;;0.40;0.40;;;10.80;99.90;;;;;;5051510;28;20036;-77
2021/10/10 00:06:15;;;;;;;0.00;0.00;;;10.70;99.90;;;;;;5051445;28;20033;-77
2021/10/10 00:08:40;;;;;;;0.52;0.25;;;10.70;99.90;;;;;;5052542;28;20507;-77
2021/10/10 00:11:06;;;;;;;0.50;0.50;;;10.70;99.90;;;;;;5052190;28;20021;-77
2021/10/10 00:13:32;;;;;;;0.93;0.38;;;10.70;99.90;;;;;;5052650;28;20025;-77
2021/10/10 00:15:57;;;;;;;0.35;0.35;;;10.70;99.90;;;;;;5051614;28;20456;-77
2021/10/10 00:18:23;;;;;;;0.77;0.38;;;10.70;99.90;;;;;;5052300;28;20024;-77
2021/10/10 00:20:49;;;;;;;0.38;0.30;;;10.70;99.90;;;;;;5052543;28;20017;-77
2021/10/10 00:23:14;;;;;;;0.10;0.10;;;10.60;99.90;;;;;;5052646;28;20439;-77
2021/10/10 00:25:40;;;;;;;0.32;0.10;;;10.60;99.90;;;;;;5050943;28;20511;-77
2021/10/10 00:28:05;;;;;;;2.13;0.80;;;10.60;99.90;;;;;;5051985;28;20055;-77
2021/10/10 00:30:31;;;;;;;0.20;0.10;;;10.60;99.90;;;;;;5053565;28;20032;-77
2021/10/10 00:32:57;;;;;;;0.10;0.10;;;10.50;99.90;;;;;;5056522;28;20073;-77
2021/10/10 00:35:23;;;;;;;6.65;1.35;;;10.50;99.90;;;;;;5056577;28;20032;-77
2021/10/10 00:37:48;;;;;;;0.22;0.03;;;10.50;99.90;;;;;;5056347;28;20442;-77
2021/10/10 00:40:15;;;;;;;0.88;0.20;;;10.50;99.90;;;;;;5056239;28;20025;-77
2021/10/10 00:42:41;;;;;;;0.15;0.15;;;10.40;99.90;;;;;;5056623;28;20029;-77
2021/10/10 00:45:07;;;;;;;0.68;0.35;;;10.40;99.90;;;;;;5056371;28;20143;-77
2021/10/10 00:47:33;;;;;;;0.60;0.40;;;10.40;99.90;;;;;;5055278;28;20496;-77
2021/10/10 00:49:58;;;;;;;0.00;0.00;;;10.30;99.90;;;;;;5056437;28;20210;-77
2021/10/10 00:52:26;;;;;;;5.32;0.77;;;10.30;99.90;;;;;;5055842;28;20107;-77
2021/10/10 00:54:55;;;;;;;5.35;1.63;;;10.30;99.90;;;;;;5056396;28;20017;-77
2021/10/10 00:57:23;;;;;;;0.55;0.55;;;10.30;99.90;;;;;;5056041;28;20025;-77
2021/10/10 00:59:51;;;;;;;0.28;0.28;;;10.30;99.90;;;;;;5055928;28;20025;-77
2021/10/10 01:02:17;;;;;;;0.22;0.22;;;10.30;99.90;;;;;;5055810;28;20554;-77
2021/10/10 01:04:42;;;;;;;24.63;1.02;;;10.20;99.90;;;;;;5056018;28;20025;-77
2021/10/10 01:07:09;;;;;;;0.43;0.43;;;10.20;99.90;;;;;;5056071;28;20095;-77
2021/10/10 01:09:36;;;;;;;1.17;0.40;;;10.10;99.90;;;;;;5055929;28;20040;-77
2021/10/10 01:12:06;;;;;;;1.40;1.08;;;10.20;99.90;;;;;;5054651;28;20091;-77
2021/10/10 01:14:33;;;;;;;0.00;0.00;;;10.10;99.90;;;;;;5055848;28;20396;-78
2021/10/10 01:17:00;;;;;;;0.10;0.10;;;10.00;99.90;;;;;;5055408;28;20041;-77
2021/10/10 01:19:29;;;;;;;0.15;0.15;;;10.00;99.90;;;;;;5056196;28;20392;-77
2021/10/10 01:21:57;;;;;;;0.40;0.40;;;10.00;99.90;;;;;;5055726;28;20392;-77
2021/10/10 01:24:22;;;;;;;0.20;0.20;;;10.00;99.90;;;;;;5055041;28;20064;-77
2021/10/10 01:26:48;;;;;;;0.25;0.25;;;10.00;99.90;;;;;;5054135;28;20021;-78
2021/10/10 01:29:14;;;;;;;2.65;1.02;;;9.90;99.90;;;;;;5054354;28;20100;-77
2021/10/10 01:31:39;;;;;;;1.13;0.82;;;9.90;99.90;;;;;;5054339;28;20029;-77
2021/10/10 01:34:05;;;;;;;0.08;0.08;;;9.90;99.90;;;;;;5054247;28;20032;-77
2021/10/10 01:36:34;;;;;;;0.98;0.38;;;9.80;99.90;;;;;;5054295;28;20033;-77
2021/10/10 01:38:59;;;;;;;2.50;1.10;;;9.80;99.90;;;;;;5053938;28;20119;-77
2021/10/10 01:41:25;;;;;;;1.17;1.08;;;9.80;99.90;;;;;;5053476;28;20476;-77
2021/10/10 01:43:51;;;;;;;1.75;1.35;;;9.80;99.90;;;;;;5054267;28;20104;-77
2021/10/10 01:46:16;;;;;;;0.10;0.10;;;9.80;99.90;;;;;;5053996;28;20147;-77
2021/10/10 01:48:42;;;;;;;1.35;1.25;;;9.70;99.90;;;;;;5053374;28;20021;-77
2021/10/10 01:51:08;;;;;;;1.60;0.47;;;9.70;99.90;;;;;;5053940;28;20057;-77
2021/10/10 01:53:33;;;;;;;0.20;0.20;;;9.70;99.90;;;;;;5053781;28;20052;-77
2021/10/10 01:55:59;;;;;;;0.80;0.35;;;9.60;99.90;;;;;;5053850;28;20094;-77
2021/10/10 01:58:25;;;;;;;33.80;1.25;;;9.60;99.90;;;;;;5053808;28;20365;-77
2021/10/10 02:00:51;;;;;;;0.13;0.13;;;9.60;99.90;;;;;;5053842;28;20052;-77
2021/10/10 02:03:16;;;;;;;1.85;0.68;;;9.50;99.90;;;;;;5053789;28;20025;-74
2021/10/10 02:05:42;;;;;;;0.10;0.10;;;9.50;99.90;;;;;;5053702;28;20020;-77
2021/10/10 02:08:08;;;;;;;1.15;0.28;;;9.50;99.90;;;;;;5053622;28;20051;-77
2021/10/10 02:10:33;;;;;;;0.05;0.05;;;9.40;99.90;;;;;;5053237;28;20025;-77
2021/10/10 02:12:59;;;;;;;1.30;0.68;;;9.50;99.90;;;;;;5053544;28;20488;-77
2021/10/10 02:15:25;;;;;;;1.45;0.45;;;9.40;99.90;;;;;;5053539;28;20557;-77
2021/10/10 02:17:50;;;;;;;0.30;0.30;;;9.40;99.90;;;;;;5053200;28;20136;-77
2021/10/10 02:20:16;;;;;;;0.40;0.40;;;9.40;99.90;;;;;;5053448;28;20029;-77
2021/10/10 02:22:41;;;;;;;0.45;0.45;;;9.40;99.90;;;;;;5052047;28;20051;-77
2021/10/10 02:25:08;;;;;;;2.13;0.77;;;9.40;99.90;;;;;;5013515;28;1151944;-76
2021/10/10 02:27:33;;;;;;;0.88;0.63;;;9.40;99.90;;;;;;5054496;28;20385;-77
2021/10/10 02:30:00;;;;;;;0.10;0.10;;;9.40;99.90;;;;;;5054331;28;20074;-77
2021/10/10 02:32:25;;;;;;;0.22;0.22;;;9.40;99.90;;;;;;5049435;28;20029;-77
2021/10/10 02:34:52;;;;;;;3.70;0.52;;;9.40;99.90;;;;;;5034580;28;20028;-77
2021/10/10 02:37:18;;;;;;;0.10;0.10;;;9.40;99.90;;;;;;5034202;28;20108;-77
2021/10/10 02:39:43;;;;;;;0.50;0.40;;;9.40;99.90;;;;;;5034501;28;20103;-77
2021/10/10 02:42:09;;;;;;;0.80;0.80;;;9.40;99.90;;;;;;5032826;28;20029;-77
2021/10/10 02:44:35;;;;;;;0.22;0.22;;;9.40;99.90;;;;;;5034241;28;20017;-78
2021/10/10 02:47:01;;;;;;;0.00;0.00;;;9.30;99.90;;;;;;5034159;28;20027;-77
2021/10/10 02:49:26;;;;;;;1.30;0.65;;;9.40;99.90;;;;;;5033432;28;20026;-77
2021/10/10 02:51:52;;;;;;;3.95;1.30;;;9.40;99.90;;;;;;5034015;28;20025;-77
2021/10/10 02:54:17;;;;;;;1.13;1.02;;;9.40;99.90;;;;;;5031838;28;20053;-77
2021/10/10 02:56:43;;;;;;;0.00;0.00;;;9.30;99.90;;;;;;5033714;28;20451;-77
2021/10/10 02:59:09;;;;;;;0.75;0.75;;;9.30;99.90;;;;;;5033953;28;20029;-77
2021/10/10 03:01:34;;;;;;;0.70;0.43;;;9.30;99.90;;;;;;5033941;28;20056;-77
2021/10/10 03:04:00;;;;;;;3.35;0.63;;;9.30;99.90;;;;;;5032544;28;20064;-76
2021/10/10 03:06:26;;;;;;;1.65;0.65;;;9.30;99.90;;;;;;5033581;28;20025;-77
2021/10/10 03:08:52;;;;;;;0.75;0.75;;;9.30;99.90;;;;;;5033807;28;20026;-77
2021/10/10 03:11:18;;;;;;;0.40;0.40;;;9.30;99.90;;;;;;5033333;28;20400;-77
2021/10/10 03:13:45;;;;;;;0.95;0.30;;;9.30;99.90;;;;;;5032422;28;20116;-77
2021/10/10 03:16:10;;;;;;;0.63;0.30;;;9.30;99.90;;;;;;5033420;28;20127;-77
2021/10/10 03:18:36;;;;;;;0.00;0.00;;;9.30;99.90;;;;;;5033412;28;20496;-77
2021/10/10 03:21:02;;;;;;;1.63;1.20;;;9.20;99.90;;;;;;5033394;28;20048;-77
2021/10/10 03:23:27;;;;;;;0.32;0.32;;;9.20;99.90;;;;;;5033401;28;20037;-77
2021/10/10 03:25:53;;;;;;;0.50;0.28;;;9.20;99.90;;;;;;5033027;28;20054;-76
2021/10/10 03:28:18;;;;;;;3.00;0.65;;;9.20;99.90;;;;;;5033358;28;20037;-77
2021/10/10 03:30:44;;;;;;;0.00;0.00;;;9.20;99.90;;;;;;5033656;28;20377;-77
2021/10/10 03:33:10;;;;;;;0.10;0.10;;;9.20;99.90;;;;;;5045227;28;20044;-77
2021/10/10 03:35:36;;;;;;;0.65;0.65;;;9.20;99.90;;;;;;5053183;28;20096;-77
2021/10/10 03:38:01;;;;;;;0.35;0.20;;;9.20;99.90;;;;;;5053005;28;20480;-77
2021/10/10 03:40:28;;;;;;;0.10;0.10;;;9.20;99.90;;;;;;5053221;28;20031;-77
2021/10/10 03:42:54;;;;;;;2.13;1.42;;;9.10;99.90;;;;;;5053267;28;20087;-77
2021/10/10 03:45:19;;;;;;;4.25;1.30;;;9.10;99.90;;;;;;5052955;28;20434;-77
2021/10/10 03:47:45;;;;;;;0.30;0.13;;;9.10;99.90;;;;;;5052988;28;20037;-77
2021/10/10 03:50:10;;;;;;;1.17;0.50;;;9.00;99.90;;;;;;5050634;28;20423;-78
2021/10/10 03:52:36;;;;;;;0.50;0.50;;;9.00;99.90;;;;;;5052552;28;20500;-77
2021/10/10 03:57:34;;;;;;;0.08;0.08;;;9.00;99.90;;;;;;5052961;28;20047;-77
2021/10/10 04:00:04;;;;;;;2.25;0.82;;;9.00;99.90;;;;;;5052524;28;20476;-75
2021/10/10 04:02:30;;;;;;;1.85;0.80;;;8.90;99.90;;;;;;5052848;28;20017;-77
2021/10/10 04:04:56;;;;;;;0.10;0.10;;;8.90;99.90;;;;;;5052560;28;20403;-77
2021/10/10 04:07:23;;;;;;;0.98;0.85;;;8.80;99.90;;;;;;5052769;28;20032;-77
2021/10/10 04:09:48;;;;;;;3.80;1.23;;;8.80;99.90;;;;;;5052762;28;20029;-77
2021/10/10 04:12:14;;;;;;;0.47;0.47;;;8.90;99.90;;;;;;5052157;28;20086;-77
2021/10/10 04:14:40;;;;;;;1.75;0.73;;;8.80;99.90;;;;;;5052602;28;20016;-77
2021/10/10 04:17:06;;;;;;;1.00;0.75;;;8.80;99.90;;;;;;5050906;28;20507;-77
2021/10/10 04:19:32;;;;;;;0.17;0.17;;;8.80;99.90;;;;;;5052634;28;20112;-77
2021/10/10 04:21:58;;;;;;;1.10;0.22;;;8.80;99.90;;;;;;5052507;28;20029;-77
2021/10/10 04:24:24;;;;;;;0.13;0.13;;;8.80;99.90;;;;;;5052469;28;20424;-77
2021/10/10 04:26:50;;;;;;;3.17;1.00;;;8.80;99.90;;;;;;5052285;28;20029;-77
2021/10/10 04:29:16;;;;;;;2.55;1.27;;;8.80;99.90;;;;;;5052388;28;20024;-77
2021/10/10 04:31:42;;;;;;;25.08;1.65;;;8.80;99.90;;;;;;5051121;28;20021;-76
2021/10/10 04:34:10;;;;;;;0.73;0.73;;;8.80;99.90;;;;;;5032646;28;20424;-77
2021/10/10 04:36:36;;;;;;;2.08;0.60;;;8.80;99.90;;;;;;5032664;28;20026;-77
2021/10/10 04:39:02;;;;;;;0.57;0.35;;;8.70;99.90;;;;;;5032574;28;20400;-77
2021/10/10 04:41:28;;;;;;;1.30;1.17;;;8.70;99.90;;;;;;5032235;28;20151;-77
2021/10/10 04:43:53;;;;;;;1.65;0.65;;;8.70;99.90;;;;;;5032537;28;20076;-77
2021/10/10 04:46:19;;;;;;;0.00;0.00;;;8.70;99.90;;;;;;5032683;28;20034;-77
2021/10/10 04:48:45;;;;;;;1.60;0.85;;;8.70;99.90;;;;;;5032729;28;20030;-77
2021/10/10 04:51:10;;;;;;;0.10;0.10;;;8.60;99.90;;;;;;5031909;28;20112;-76
2021/10/10 04:53:36;;;;;;;2.30;0.30;;;8.70;99.90;;;;;;5032273;28;20483;-77
2021/10/10 04:56:02;;;;;;;0.35;0.35;;;8.60;99.90;;;;;;5032158;28;20472;-77
2021/10/10 04:58:27;;;;;;;1.88;1.45;;;8.60;99.90;;;;;;5032492;28;20101;-77
2021/10/10 05:00:53;;;;;;;0.00;0.00;;;8.60;99.90;;;;;;5032507;28;20377;-77
2021/10/10 05:03:18;;;;;;;0.35;0.35;;;8.60;99.90;;;;;;5032726;28;20598;-77
2021/10/10 05:05:44;;;;;;;0.10;0.10;;;8.50;99.90;;;;;;5047766;28;20076;-74
2021/10/10 05:08:10;;;;;;;0.75;0.43;;;8.50;99.90;;;;;;5032285;28;20041;-77
2021/10/10 05:10:37;;;;;;;0.82;0.82;;;8.50;99.90;;;;;;5032199;28;20083;-77
2021/10/10 05:13:03;;;;;;;0.32;0.32;;;8.50;99.90;;;;;;5032190;28;20090;-77
2021/10/10 05:15:29;;;;;;;1.92;0.50;;;8.60;99.90;;;;;;5032248;28;20449;-77
2021/10/10 05:17:55;;;;;;;1.38;1.27;;;8.60;99.90;;;;;;5050831;28;20052;-76
2021/10/10 05:20:21;;;;;;;0.22;0.22;;;8.60;99.90;;;;;;5035774;28;20040;-77
2021/10/10 05:22:46;;;;;;;0.50;0.50;;;8.60;99.90;;;;;;5035876;28;20030;-78
2021/10/10 05:25:12;;;;;;;0.43;0.43;;;8.60;99.90;;;;;;5035615;28;20493;-76
2021/10/10 05:27:38;;;;;;;1.10;0.68;;;8.60;99.90;;;;;;5035783;28;20026;-77
2021/10/10 05:30:05;;;;;;;0.40;0.40;;;8.60;99.90;;;;;;5035776;28;20033;-77
2021/10/10 05:32:30;;;;;;;0.30;0.15;;;8.50;99.90;;;;;;5048306;28;20052;-77
2021/10/10 05:34:56;;;;;;;0.10;0.10;;;8.50;99.90;;;;;;5054284;28;20494;-77
2021/10/10 05:37:22;;;;;;;0.20;0.20;;;8.50;99.90;;;;;;5055694;28;20036;-77
2021/10/10 05:39:48;;;;;;;9.75;1.98;;;8.50;99.90;;;;;;5055339;28;20503;-77
2021/10/10 05:42:14;;;;;;;1.33;1.23;;;8.50;99.90;;;;;;5055257;28;20040;-77
2021/10/10 05:44:40;;;;;;;0.00;0.00;;;8.50;99.90;;;;;;5054028;28;20021;-76
2021/10/10 05:47:06;;;;;;;5.78;1.63;;;8.50;99.90;;;;;;5055281;28;20032;-77
2021/10/10 05:49:32;;;;;;;0.00;0.00;;;8.50;99.90;;;;;;5054839;28;20553;-77
2021/10/10 05:51:58;;;;;;;0.93;0.35;;;8.40;99.90;;;;;;5055138;28;20033;-77
2021/10/10 05:54:26;;;;;;;0.32;0.32;;;8.40;99.90;;;;;;5055288;28;20140;-77
2021/10/10 05:56:52;;;;;;;0.70;0.70;;;8.40;99.90;;;;;;5055173;28;20075;-76
2021/10/10 05:59:19;;;;;;;0.13;0.13;;;8.40;99.90;;;;;;5054791;28;20033;-77
2021/10/10 06:01:45;;;;;;;0.65;0.22;;;8.30;99.90;;;;;;5054994;28;20414;-77
2021/10/10 06:04:11;;;;;;;1.85;0.45;;;8.30;99.90;;;;;;5055024;28;20494;-77
2021/10/10 06:06:37;;;;;;;2.08;1.02;;;8.30;99.90;;;;;;5055084;28;20029;-76
2021/10/10 06:09:05;;;;;;;0.80;0.63;;;8.30;99.90;;;;;;5055121;28;20025;-76
2021/10/10 06:11:31;;;;;;;0.50;0.43;;;8.30;99.90;;;;;;5057055;28;20064;-76
2021/10/10 06:13:59;;;;;;;0.35;0.35;;;8.20;99.90;;;;;;5064102;28;20112;-77
2021/10/10 06:16:26;;;;;;;1.35;0.47;;;8.20;99.90;;;;;;5066023;28;20062;-76
2021/10/10 06:18:51;;;;;;;0.88;0.80;;;8.20;99.90;;;;;;5068901;28;20029;-76
2021/10/10 06:21:17;;;;;;;0.10;0.10;;;8.20;99.90;;;;;;5064921;28;20527;-74
2021/10/10 06:23:43;;;;;;;1.27;0.82;;;8.30;99.90;;;;;;5061906;28;20041;-74
2021/10/10 06:26:08;;;;;;;2.65;1.70;;;8.30;99.90;;;;;;5061101;28;20053;-77
2021/10/10 06:28:34;;;;;;;3.53;1.80;;;8.40;99.90;;;;;;5062076;28;20033;-76
2021/10/10 06:30:59;;;;;;;1.95;0.15;;;8.40;99.90;;;;;;5062989;28;20480;-76
2021/10/10 06:33:25;;;;;;;0.30;0.30;;;8.50;99.90;;;;;;5054561;28;20028;-77
2021/10/10 06:35:52;;;;;;;9.90;1.85;;;8.50;99.90;;;;;;5054281;28;20025;-78
2021/10/10 06:38:18;;;;;;;4.38;0.68;;;8.50;99.90;;;;;;5054244;28;20025;-77
2021/10/10 06:40:46;;;;;;;2.30;1.30;;;8.60;99.90;;;;;;5053995;28;20021;-77
2021/10/10 06:43:12;;;;;;;0.00;0.00;;;8.60;99.90;;;;;;5054292;28;20031;-77
2021/10/10 06:45:37;;;;;;;2.72;1.00;;;8.60;99.90;;;;;;5053051;28;20043;-77
2021/10/10 06:48:03;;;;;;;1.80;1.70;;;8.70;99.90;;;;;;5054048;28;20107;-77
2021/10/10 06:50:29;;;;;;;0.68;0.68;;;8.70;99.90;;;;;;5053318;28;20108;-77
2021/10/10 06:52:55;;;;;;;0.88;0.88;;;8.70;99.90;;;;;;5053893;28;20021;-77
2021/10/10 06:55:20;;;;;;;1.80;0.85;;;8.70;99.90;;;;;;5052582;28;20162;-77
2021/10/10 06:57:46;;;;;;;0.80;0.43;;;8.80;99.90;;;;;;5053909;28;20017;-77
2021/10/10 07:00:13;;;;;;;0.00;0.00;;;8.80;99.90;;;;;;5053922;28;20025;-77
2021/10/10 07:02:42;;;;;;;1.05;0.95;;;8.90;99.90;;;;;;5053867;28;20446;-77
2021/10/10 07:05:09;;;;;;;2.30;1.40;;;9.00;99.90;;;;;;5053806;28;20020;-78
2021/10/10 07:07:34;;;;;;;0.73;0.63;;;9.10;99.90;;;;;;5052193;28;20036;-77
2021/10/10 07:10:00;;;;;;;1.25;0.75;;;9.10;99.90;;;;;;5052428;28;20029;-77
2021/10/10 07:12:26;;;;;;;0.32;0.32;;;9.20;99.90;;;;;;5053034;28;20033;-77
2021/10/10 07:14:51;;;;;;;0.40;0.40;;;9.20;99.90;;;;;;5053613;28;20043;-77
2021/10/10 07:17:17;;;;;;;0.68;0.68;;;9.30;99.90;;;;;;5051540;28;20494;-78
2021/10/10 07:19:49;;;;;;;0.45;0.45;;;9.30;99.90;;;;;;5053291;28;20032;-77
2021/10/10 07:22:27;;;;;;;0.20;0.20;;;9.40;99.90;;;;;;5053839;28;20032;-77
2021/10/10 07:24:59;;;;;;;0.45;0.45;;;9.50;99.90;;;;;;5053558;28;20076;-77
2021/10/10 07:27:25;;;;;;;15.93;0.75;;;9.70;99.90;;;;;;5053535;28;20025;-77
2021/10/10 07:29:51;;;;;;;1.67;0.57;;;9.90;99.90;;;;;;5051725;28;20025;-77
2021/10/10 07:32:16;;;;;;;2.20;0.70;;;10.70;99.90;;;;;;5053118;28;20108;-77
2021/10/10 07:34:42;;;;;;;0.75;0.22;;;12.60;99.90;;;;;;5053517;28;20506;-77
2021/10/10 07:37:08;;;;;;;4.32;1.92;;;13.60;99.90;;;;;;5053376;28;20033;-77
2021/10/10 07:39:33;;;;;;;0.98;0.95;;;13.60;99.90;;;;;;5052739;28;20021;-75
2021/10/10 07:41:59;;;;;;;0.38;0.38;;;13.40;99.90;;;;;;5053133;28;20017;-77
2021/10/10 07:44:29;;;;;;;1.77;1.02;;;12.70;99.90;;;;;;5052088;28;20029;-78
2021/10/10 07:47:06;;;;;;;1.08;0.80;;;12.00;99.90;;;;;;5053065;28;20029;-77
2021/10/10 07:49:32;;;;;;;2.17;1.95;;;11.40;99.90;;;;;;5053094;28;20542;-77
2021/10/10 07:51:58;;;;;;;3.03;0.77;;;11.00;99.90;;;;;;5051899;28;20028;-76
2021/10/10 07:54:23;;;;;;;0.43;0.40;;;10.90;99.90;;;;;;5052348;28;20083;-77
2021/10/10 07:56:49;;;;;;;4.15;0.65;;;10.90;99.90;;;;;;5052892;28;20433;-77
2021/10/10 07:59:15;;;;;;;0.85;0.63;;;10.90;99.90;;;;;;5052641;28;20032;-77
2021/10/10 08:01:40;;;;;;;1.55;0.40;;;11.10;99.90;;;;;;5052781;28;20021;-77
2021/10/10 08:04:06;;;;;;;0.60;0.57;;;11.20;99.90;;;;;;5052846;28;20028;-76
2021/10/10 08:06:31;;;;;;;0.30;0.30;;;11.30;99.90;;;;;;5051578;28;20024;-77
2021/10/10 08:08:57;;;;;;;1.30;0.43;;;11.50;99.90;;;;;;5052859;28;20504;-77
2021/10/10 08:11:23;;;;;;;1.13;0.65;;;11.90;99.90;;;;;;5052214;28;20488;-77
2021/10/10 08:13:49;;;;;;;1.73;0.60;;;12.70;99.90;;;;;;5052539;28;20078;-76
2021/10/10 08:16:14;;;;;;;0.40;0.40;;;12.90;99.90;;;;;;5051161;28;20020;-78
2021/10/10 08:18:40;;;;;;;2.80;1.55;;;13.10;99.90;;;;;;5052546;28;20484;-77
2021/10/10 08:21:05;;;;;;;0.45;0.45;;;13.90;99.90;;;;;;5052296;28;20503;-76
2021/10/10 08:23:31;;;;;;;0.57;0.57;;;15.40;99.90;;;;;;5051207;28;20074;-77
2021/10/10 08:25:57;;;;;;;1.17;1.13;;;15.90;99.90;;;;;;5052294;28;20102;-77
2021/10/10 08:28:24;;;;;;;0.85;0.85;;;15.50;99.90;;;;;;5052458;28;20112;-77
2021/10/10 08:30:50;;;;;;;2.47;1.08;;;15.20;99.90;;;;;;5051227;28;20024;-76
2021/10/10 08:33:16;;;;;;;0.90;0.85;;;15.20;99.90;;;;;;5052253;28;20029;-77
2021/10/10 08:35:41;;;;;;;1.63;1.00;;;15.10;99.90;;;;;;5051194;28;20021;-77
2021/10/10 08:38:07;;;;;;;2.60;0.60;;;15.10;99.90;;;;;;5052434;28;20404;-77
2021/10/10 08:40:33;;;;;;;0.60;0.60;;;15.20;99.90;;;;;;5052214;28;20032;-77
2021/10/10 08:43:00;;;;;;;0.17;0.17;;;15.20;99.90;;;;;;5052326;28;20029;-77
2021/10/10 08:45:30;;;;;;;2.53;1.05;;;15.50;99.90;;;;;;5052451;28;20028;-77
2021/10/10 08:47:56;;;;;;;0.85;0.85;;;15.50;99.90;;;;;;5052321;28;20017;-77
2021/10/10 08:50:24;;;;;;;1.17;1.08;;;15.40;99.90;;;;;;5051112;28;20033;-77
2021/10/10 08:52:52;;;;;;;1.17;0.80;;;15.60;99.90;;;;;;5054626;28;20052;-77
2021/10/10 08:55:18;;;;;;;0.40;0.40;;;16.00;99.90;;;;;;5056032;28;20028;-77
2021/10/10 08:57:45;;;;;;;6.43;0.88;;;16.30;99.90;;;;;;5056409;28;20043;-77
2021/10/10 09:00:16;;;;;;;2.67;1.55;;;16.60;99.90;;;;;;5056428;28;20031;-77
2021/10/10 09:02:45;;;;;;;1.70;0.77;;;17.40;99.90;;;;;;5056193;28;20100;-77
2021/10/10 09:05:11;;;;;;;2.63;0.88;;;18.50;99.90;;;;;;5056002;28;20029;-77
2021/10/10 09:07:37;;;;;;;1.20;0.80;;;18.80;99.90;;;;;;5055994;28;20104;-77
2021/10/10 09:10:24;;;;;;;1.08;0.60;;;19.00;99.90;;;;;;5045290;28;20029;-77
2021/10/10 09:12:50;;;;;;;2.75;1.38;;;19.20;99.90;;;;;;5035388;28;20040;-77
2021/10/10 09:15:22;;;;;;;2.80;1.27;;;19.20;99.90;;;;;;5035946;28;20089;-77
2021/10/10 09:17:59;;;;;;;3.92;1.75;;;19.00;99.90;;;;;;5067116;28;20025;-77
2021/10/10 09:20:32;;;;;;;3.72;1.63;;;19.10;99.90;;;;;;5035708;28;20048;-77
2021/10/10 09:22:58;;;;;;;;;;;20.40;99.20;;;;;;5036459;28;20186;-77
2021/10/10 09:25:24;;;;;;;1.85;1.15;;;21.50;97.30;;;;;;5035288;28;19932;-77
2021/10/10 09:27:50;;;;;;;3.42;1.00;;;22.40;96.00;;;;;;5035504;28;20021;-78
2021/10/10 09:30:20;;;;;;;0.57;0.57;;;22.20;95.60;;;;;;5035638;28;20071;-77
2021/10/10 09:32:45;;;;;;;1.00;0.70;;;21.20;96.10;;;;;;5043940;28;20051;-77
2021/10/10 09:35:27;;;;;;;1.13;0.73;;;19.70;97.70;;;;;;5055575;28;20029;-77
2021/10/10 09:38:24;;;;;;;10.33;1.67;;;18.70;99.90;;;;;;5053790;28;20457;-77
2021/10/10 09:41:00;;;;;;;3.47;1.05;;;18.20;99.90;;;;;;5055018;28;20063;-77
2021/10/10 09:43:26;;;;;;;7.43;1.67;;;18.00;99.90;;;;;;5055663;28;20032;-77
2021/10/10 09:45:55;;;;;;;1.10;0.63;;;17.90;99.90;;;;;;5055368;28;20396;-77
2021/10/10 09:48:37;;;;;;;2.10;1.25;;;17.50;99.90;;;;;;5055280;28;20086;-77
2021/10/10 09:51:03;;;;;;;2.97;0.98;;;17.30;99.90;;;;;;5055131;28;20075;-76
2021/10/10 09:53:31;;;;;;;0.45;0.45;;;17.30;99.90;;;;;;5054387;28;20037;-77
2021/10/10 09:56:06;;;;;;;0.68;0.52;;;17.30;99.90;;;;;;5053211;28;20067;-76
2021/10/10 09:58:39;;;;;;;1.58;1.13;;;17.50;99.90;;;;;;5055077;28;20025;-77
2021/10/10 10:01:16;;;;;;;8.95;3.05;;;17.40;99.90;;;;;;5054941;28;20025;-77
2021/10/10 10:04:08;;;;;;;4.47;1.13;;;17.40;99.90;;;;;;5054486;28;20033;-77
2021/10/10 10:06:36;;;;;;;5.97;1.05;;;17.30;99.90;;;;;;5054444;28;20103;-77
2021/10/10 10:09:07;;;;;;;6.43;0.98;;;17.40;99.90;;;;;;5053210;28;20024;-77
2021/10/10 10:11:36;;;;;;;5.15;0.35;;;17.50;99.90;;;;;;5052365;28;20107;-77
2021/10/10 10:14:10;;;;;;;2.65;0.82;;;17.40;99.90;;;;;;5054716;28;20028;-77
2021/10/10 10:16:40;;;;;;;1.08;0.70;;;17.50;99.90;;;;;;5054273;28;20013;-77
2021/10/10 10:19:09;;;;;;;1.55;0.38;;;17.50;99.90;;;;;;5054818;28;20446;-77
2021/10/10 10:21:36;;;;;;;0.85;0.32;;;17.70;99.90;;;;;;5054712;28;20021;-77
2021/10/10 10:24:03;;;;;;;2.85;0.90;;;17.60;99.90;;;;;;5054702;28;20029;-77
2021/10/10 10:26:34;;;;;;;2.08;0.88;;;17.80;99.90;;;;;;5054531;28;20064;-77
2021/10/10 10:29:06;;;;;;;0.65;0.52;;;17.90;99.90;;;;;;5054601;28;20033;-77
2021/10/10 10:31:35;;;;;;;0.50;0.40;;;17.80;99.90;;;;;;5054653;28;20063;-77
2021/10/10 10:34:23;;;;;;;2.47;1.10;;;18.00;99.90;;;;;;5054346;28;20074;-77
2021/10/10 10:36:56;;;;;;;1.02;0.30;;;18.10;99.90;;;;;;5054291;28;20017;-78
2021/10/10 10:39:40;;;;;;;0.20;0.20;;;18.10;99.90;;;;;;5054430;28;20066;-77
2021/10/10 10:42:13;;;;;;;0.65;0.47;;;18.00;99.90;;;;;;5054159;28;20021;-77
2021/10/10 10:44:48;;;;;;;;;;;18.10;99.90;;;;;;5053357;28;20025;-77
2021/10/10 10:47:39;;;;;;;1.15;0.70;;;18.10;99.90;;;;;;5054137;28;19905;-76
2021/10/10 10:50:07;;;;;;;0.65;0.35;;;18.00;99.90;;;;;;5054268;28;20036;-77
2021/10/10 10:52:38;;;;;;;0.98;0.93;;;18.20;99.90;;;;;;5053717;28;20021;-77
2021/10/10 10:55:16;;;;;;;0.30;0.30;;;18.40;99.90;;;;;;5053430;28;20025;-77
2021/10/10 10:57:51;;;;;;;1.40;0.38;;;18.40;99.90;;;;;;5052568;28;20484;-77
2021/10/10 11:00:24;;;;;;;1.73;0.32;;;18.50;99.90;;;;;;5053818;28;20123;-77
2021/10/10 11:03:02;;;;;;;0.88;0.30;;;18.40;99.90;;;;;;5053855;28;20033;-77
2021/10/10 11:05:36;;;;;;;0.52;0.52;;;18.60;99.90;;;;;;5053737;28;20491;-76
2021/10/10 11:08:17;;;;;;;1.45;0.32;;;18.70;99.90;;;;;;5052437;28;20029;-77
2021/10/10 11:11:03;;;;;;;2.25;0.73;;;18.80;99.90;;;;;;5053203;28;20039;-76
2021/10/10 11:13:35;;;;;;;0.82;0.45;;;18.90;99.90;;;;;;5053300;28;20484;-77
2021/10/10 11:16:11;;;;;;;0.95;0.50;;;18.80;99.90;;;;;;5051878;28;20075;-77
2021/10/10 11:18:50;;;;;;;1.50;0.68;;;19.10;99.90;;;;;;5053395;28;20016;-77
2021/10/10 11:21:39;;;;;;;0.45;0.30;;;19.20;99.30;;;;;;5053466;28;20032;-77
2021/10/10 11:24:19;;;;;;;0.50;0.50;;;19.30;99.70;;;;;;5052434;28;20044;-77
2021/10/10 11:26:47;;;;;;;0.20;0.10;;;19.40;98.40;;;;;;5053263;28;20029;-77
2021/10/10 11:29:22;;;;;;;0.10;0.10;;;19.50;99.00;;;;;;5052202;28;20399;-77
2021/10/10 11:31:49;;;;;;;0.75;0.65;;;19.60;98.30;;;;;;5053256;28;20488;-78
2021/10/10 11:34:19;;;;;;;1.33;0.57;;;19.70;98.30;;;;;;5053287;28;20100;-77
2021/10/10 11:36:52;;;;;;;0.28;0.28;;;19.60;98.20;;;;;;5053177;28;20021;-77
2021/10/10 11:39:19;;;;;;;1.38;0.60;;;19.80;97.90;;;;;;5051734;28;20404;-77
2021/10/10 11:41:47;;;;;;;0.52;0.52;;;19.80;98.40;;;;;;5053095;28;20107;-77
2021/10/10 11:44:15;;;;;;;1.58;0.65;;;19.90;98.50;;;;;;5053185;28;20021;-77
2021/10/10 11:46:50;;;;;;;0.63;0.30;;;20.00;98.30;;;;;;5053231;28;20369;-77
2021/10/10 11:49:30;;;;;;;0.57;0.57;;;20.00;97.20;;;;;;5052964;28;20032;-77
2021/10/10 11:52:07;;;;;;;1.40;0.17;;;19.90;97.20;;;;;;5052648;28;20025;-78
2021/10/10 11:54:40;;;;;;;0.40;0.40;;;19.90;97.20;;;;;;5052426;28;20507;-77
2021/10/10 11:57:08;;;;;;;0.75;0.32;;;20.10;96.90;;;;;;5053018;28;20033;-77
2021/10/10 11:59:46;;;;;;;3.25;0.82;;;20.20;96.70;;;;;;5052392;28;20078;-74
2021/10/10 12:02:11;;;;;;;1.45;0.20;;;20.20;96.00;;;;;;5053018;28;20052;-77
2021/10/10 12:04:37;;;;;;;0.40;0.40;;;20.30;95.80;;;;;;5052997;28;20484;-77
2021/10/10 12:07:04;;;;;;;2.80;0.85;;;20.40;96.80;;;;;;5052595;28;20078;-77
2021/10/10 12:09:30;;;;;;;0.85;0.45;;;20.50;96.10;;;;;;5052728;28;20424;-77
2021/10/10 12:12:07;;;;;;;0.57;0.30;;;20.60;96.30;;;;;;5052586;28;20025;-77
2021/10/10 12:14:44;;;;;;;0.68;0.65;;;20.60;96.60;;;;;;5052803;28;20028;-77
2021/10/10 12:17:26;;;;;;;0.30;0.30;;;20.70;96.60;;;;;;5051120;28;20112;-77
2021/10/10 12:19:53;;;;;;;0.60;0.32;;;20.80;95.60;;;;;;5052635;28;20116;-77
2021/10/10 12:22:18;;;;;;;0.88;0.88;;;20.90;95.60;;;;;;5052754;28;20531;-77
2021/10/10 12:24:46;;;;;;;1.85;0.65;;;21.00;95.20;;;;;;5052668;28;20135;-77
2021/10/10 12:27:22;;;;;;;0.68;0.32;;;21.10;95.00;;;;;;5056711;28;20032;-77
2021/10/10 12:29:48;;;;;;;1.55;0.22;;;21.10;95.80;;;;;;5056841;28;20029;-77
2021/10/10 12:32:21;;;;;;;0.50;0.50;;;21.10;95.40;;;;;;5056501;28;20070;-77
2021/10/10 12:34:47;;;;;;;1.08;1.00;;;21.10;95.40;;;;;;5056610;28;20415;-77
2021/10/10 12:37:21;;;;;;;0.90;0.40;;;21.10;95.00;;;;;;5056633;28;20024;-78
2021/10/10 12:39:48;;;;;;;1.77;0.70;;;21.10;94.90;;;;;;5056543;28;20086;-77
2021/10/10 12:42:14;;;;;;;0.43;0.43;;;21.00;94.10;;;;;;5056448;28;20075;-77
2021/10/10 12:44:40;;;;;;;0.43;0.43;;;21.20;93.90;;;;;;5056668;28;20036;-77
2021/10/10 12:47:06;;;;;;;1.75;1.10;;;21.40;93.90;;;;;;5056474;28;20025;-77
2021/10/10 12:49:37;;;;;;;1.27;1.02;;;21.50;93.60;;;;;;5056353;28;20116;-77
2021/10/10 12:52:08;;;;;;;1.20;0.90;;;21.30;93.20;;;;;;5056183;28;20077;-75
2021/10/10 12:54:39;;;;;;;1.02;0.63;;;21.20;93.70;;;;;;5055449;28;20033;-78
2021/10/10 12:57:09;;;;;;;0.47;0.22;;;21.30;94.30;;;;;;5056137;28;20503;-78
2021/10/10 12:59:38;;;;;;;1.95;0.57;;;21.40;94.30;;;;;;5056179;28;20448;-77